aviador You're here:

KEST Decoded Metar

ESTHERVILLE in IA, USA
Report Time2017-07-22 23:52:00
UTC Time2017-07-23 00:52:19
Flight Rules vfr VFR
Wind320° at 09 kt
W.Decomp.*RWY 34: 8.1 kt HW 3.9 kt LCW
RWY 24: 2.5 kt HW 8.7 kt RCW
W.Rank320° ranks 7
Current wind is below 320° avg. (11.3)
Visibility9999 m
Phenomena:N/A
Clouds:N/A
Expected CloudBase > 2,400 ft AGL from Temp-Dew spread
CeilingNone
Temp28°C (ISA +16)
Dew Point22°C (70% RH)
Heat Index30.7°C
QNH1012 hPa
Density Alt3,497 ft
Elevation1,316 ft
Report Wrong Elevation
Raw Report
KEST 222352Z AUTO 32009KT 10SM CLR 28/22 A2987 RMK AO2 SLP107
T02830217 10300 20267 58002=

Extra information for KEST:More info

Metar Taf Metar & Taf Last 4 Metars F.Rules Stats Wind Profile Meteogram Temp Stats Airport Information Weather charts Add Link Nearby VenuesMetar ALERT Operation Metar Decoded Social comments

AIRNAV info for KEST